Galena, Missouri
Current Conditions -  °F | °C
As of 5:35 AM on Friday 19 Dec 2014 (Local Time) from KFWB Reporting Station
Overcast Overcast  
Wind Chill: 36°   Ceiling: 400
Heat Index: 36°   Visibility: 7mi
Dew Point: 36°   Wind: 3mph
Humidity: 100%   Direction: 100°E
Pressure: 30.21"   Gusts: NA
Location:  36.81°N, 93.47°W
Report Text: KFWB 191135Z AUTO 10003KT 7SM OVC004 02/02 A3021 RMK AO2
Loading
Personal Weather Stations






























Interactive Weather Map New forecast layout! Learn more

10-Day Weather Forecast

Advertisements
Track Severe Weather on mobile